Time;durP1;ratioP1;P1;durP2;ratioP2;P2;SDS_P1;SDS_P2;PMS_P1;PMS_P2;Temp;Humidity;BMP_temperature;BMP_pressure;BME280_temperature;BME280_humidity;BME280_pressure;Samples;Min_cycle;Max_cycle;Signal;HPM_P1;HPM_P2
2022/12/14 00:00:32;;;;;;;;;;;-2.80;99.90;;;;;;5094397;28;19912;-41
2022/12/14 00:02:58;;;;;;;;;;;-2.80;99.90;;;;;;5093403;28;19955;-40
2022/12/14 00:05:23;;;;;;;;;;;-2.90;99.90;;;;;;5094287;28;20006;-41
2022/12/14 00:07:49;;;;;;;;;;;-2.90;99.90;;;;;;5098103;28;19915;-42
2022/12/14 00:10:14;;;;;;;;;;;-2.90;99.90;;;;;;5113667;28;20419;-40
2022/12/14 00:12:40;;;;;;;;;;;-2.90;99.90;;;;;;5114009;28;19920;-40
2022/12/14 00:15:06;;;;;;;;;;;-2.90;99.90;;;;;;5105306;28;19912;-41
2022/12/14 00:17:31;;;;;;;;;;;-2.90;99.90;;;;;;5093252;28;20310;-41
2022/12/14 00:19:56;;;;;;;;;;;-2.80;99.90;;;;;;5093632;28;19915;-40
2022/12/14 00:22:22;;;;;;;;;;;-2.80;99.90;;;;;;5093923;28;19995;-40
2022/12/14 00:24:47;;;;;;;;;;;-2.80;99.90;;;;;;5092718;28;19916;-41
2022/12/14 00:27:13;;;;;;;;;;;-2.80;99.90;;;;;;5110495;28;19912;-41
2022/12/14 00:29:38;;;;;;;;;;;-2.90;99.90;;;;;;5113097;28;19908;-41
2022/12/14 00:32:04;;;;;;;;;;;-2.90;99.90;;;;;;5113715;28;19915;-40
2022/12/14 00:34:30;;;;;;;;;;;-2.90;99.90;;;;;;5113897;28;20353;-40
2022/12/14 00:36:56;;;;;;;;;;;-2.90;99.90;;;;;;5113249;28;19943;-40
2022/12/14 00:39:21;;;;;;;;;;;-2.90;99.90;;;;;;5098052;28;20264;-40
2022/12/14 00:41:47;;;;;;;;;;;-2.90;99.90;;;;;;5093493;28;19952;-40
2022/12/14 00:44:12;;;;;;;;;;;-2.90;99.90;;;;;;5092563;28;19934;-40
2022/12/14 00:46:38;;;;;;;;;;;-2.90;99.90;;;;;;5093300;28;20274;-40
2022/12/14 00:49:03;;;;;;;;;;;-2.90;99.90;;;;;;5093645;28;20361;-40
2022/12/14 00:51:29;;;;;;;;;;;-2.90;99.90;;;;;;5092516;28;19912;-41
2022/12/14 00:53:54;;;;;;;;;;;-2.90;99.90;;;;;;5093142;28;19916;-42
2022/12/14 00:56:20;;;;;;;;;;;-2.90;99.90;;;;;;5093280;28;19909;-41
2022/12/14 00:58:49;;;;;;;;;;;-3.00;99.90;;;;;;5092321;28;20014;-41
2022/12/14 01:01:15;;;;;;;;;;;-3.00;99.90;;;;;;5093063;28;19908;-42
2022/12/14 01:03:40;;;;;;;;;;;-3.00;99.90;;;;;;5093074;28;20279;-42
2022/12/14 01:06:13;;;;;;;;;;;-3.00;99.90;;;;;;5092089;28;19908;-41
2022/12/14 01:08:38;;;;;;;;;;;-3.00;99.90;;;;;;5106448;28;19965;-41
2022/12/14 01:11:08;;;;;;;;;;;-3.00;99.90;;;;;;5113261;28;20001;-41
2022/12/14 01:13:33;;;;;;;;;;;-3.00;99.90;;;;;;5112111;28;19924;-40
2022/12/14 01:16:06;;;;;;;;;;;-3.10;99.90;;;;;;5107951;28;19913;-41
2022/12/14 01:18:33;;;;;;;;;;;-3.10;99.90;;;;;;5092987;28;19908;-41
2022/12/14 01:21:12;;;;;;;;;;;-3.20;99.90;;;;;;5092109;28;19995;-40
2022/12/14 01:23:38;;;;;;;;;;;-3.20;99.90;;;;;;5092996;28;19908;-41
2022/12/14 01:26:04;;;;;;;;;;;-3.30;99.90;;;;;;5092030;28;19915;-40
2022/12/14 01:28:29;;;;;;;;;;;-3.30;99.90;;;;;;5092556;28;19908;-40
2022/12/14 01:30:55;;;;;;;;;;;-3.40;99.90;;;;;;5092901;28;19951;-42
2022/12/14 01:33:20;;;;;;;;;;;-3.40;99.90;;;;;;5092011;28;20011;-41
2022/12/14 01:35:45;;;;;;;;;;;-3.40;99.90;;;;;;5092813;28;19915;-40
2022/12/14 01:38:11;;;;;;;;;;;-3.50;99.90;;;;;;5101820;28;20267;-41
2022/12/14 01:40:36;;;;;;;;;;;-3.50;99.90;;;;;;5111962;28;19924;-40
2022/12/14 01:43:02;;;;;;;;;;;-3.60;99.90;;;;;;5113066;28;19961;-40
2022/12/14 01:45:27;;;;;;;;;;;-3.60;99.90;;;;;;5115621;28;19914;-40
2022/12/14 01:47:55;;;;;;;;;;;-3.60;99.90;;;;;;5116468;28;20381;-40
2022/12/14 01:50:33;;;;;;;;;;;-3.60;99.90;;;;;;5116975;28;20333;-41
2022/12/14 01:53:01;;;;;;;;;;;-3.70;99.90;;;;;;5117132;28;20003;-40
2022/12/14 01:55:30;;;;;;;;;;;-3.70;99.90;;;;;;5116505;28;19912;-40
2022/12/14 01:57:56;;;;;;;;;;;-3.70;99.90;;;;;;5116723;28;19974;-41
2022/12/14 02:00:22;;;;;;;;;;;-3.70;99.90;;;;;;5117072;28;19912;-41
2022/12/14 02:02:58;;;;;;;;;;;-3.70;99.90;;;;;;5116265;28;19907;-41
2022/12/14 02:05:24;;;;;;;;;;;-3.70;99.90;;;;;;5116912;28;19908;-40
2022/12/14 02:07:51;;;;;;;;;;;-3.80;99.90;;;;;;5107432;28;19981;-40
2022/12/14 02:10:17;;;;;;;;;;;-3.90;99.90;;;;;;5095779;28;19909;-40
2022/12/14 02:12:50;;;;;;;;;;;-3.90;99.90;;;;;;5097117;28;19927;-41
2022/12/14 02:15:16;;;;;;;;;;;-4.00;99.90;;;;;;5100663;28;19912;-42
2022/12/14 02:17:43;;;;;;;;;;;-4.00;99.90;;;;;;5116788;28;19908;-41
2022/12/14 02:20:09;;;;;;;;;;;-4.00;99.90;;;;;;5116422;28;20403;-40
2022/12/14 02:22:47;;;;;;;;;;;-4.10;99.90;;;;;;5115689;28;19908;-40
2022/12/14 02:25:31;;;;;;;;;;;-4.10;99.90;;;;;;5115173;28;19912;-42
2022/12/14 02:28:15;;;;;;;;;;;-4.10;99.90;;;;;;5116214;28;19908;-41
2022/12/14 02:30:42;;;;;;;;;;;-4.10;99.90;;;;;;5115621;28;19914;-41
2022/12/14 02:33:10;;;;;;;;;;;-4.10;99.90;;;;;;5111167;28;19916;-41
2022/12/14 02:35:56;;;;;;;;;;;-4.20;99.90;;;;;;5096055;28;19908;-40
2022/12/14 02:38:31;;;;;;;;;;;-4.20;99.90;;;;;;5095147;28;19920;-40
2022/12/14 02:41:04;;;;;;;;;;;-4.20;99.90;;;;;;5095604;28;20310;-39
2022/12/14 02:43:32;;;;;;;;;;;-4.20;99.90;;;;;;5112781;28;19926;-41
2022/12/14 02:46:00;;;;;;;;;;;-4.30;99.90;;;;;;5116115;28;19954;-40
2022/12/14 02:48:31;;;;;;;;;;;-4.20;99.90;;;;;;5116162;28;20512;-41
2022/12/14 02:51:06;;;;;;;;;;;-4.30;99.90;;;;;;5104305;28;19962;-41
2022/12/14 02:53:32;;;;;;;;;;;-4.30;99.90;;;;;;5095626;28;19952;-41
2022/12/14 02:56:00;;;;;;;;;;;-4.30;99.90;;;;;;5095423;28;19947;-41
2022/12/14 02:58:35;;;;;;;;;;;-4.30;99.90;;;;;;5094640;28;19943;-41
2022/12/14 03:01:01;;;;;;;;;;;-4.40;99.90;;;;;;5097612;28;19909;-42
2022/12/14 03:03:26;;;;;;;;;;;-4.40;99.90;;;;;;5115933;28;19914;-42
2022/12/14 03:05:56;;;;;;;;;;;-4.40;99.90;;;;;;5115021;28;19908;-41
2022/12/14 03:08:23;;;;;;;;;;;-4.50;99.90;;;;;;5115340;28;19919;-40
2022/12/14 03:10:51;;;;;;;;;;;-4.50;99.90;;;;;;5106764;28;19923;-40
2022/12/14 03:13:20;;;;;;;;;;;-4.60;99.90;;;;;;5097904;28;19920;-41
2022/12/14 03:15:47;;;;;;;;;;;-4.60;99.90;;;;;;5095213;28;19909;-40
2022/12/14 03:18:16;;;;;;;;;;;-4.70;99.90;;;;;;5095088;28;19908;-40
2022/12/14 03:20:45;;;;;;;;;;;-4.70;99.90;;;;;;5093673;28;21560;-40
2022/12/14 03:23:13;;;;;;;;;;;-4.80;99.90;;;;;;5095176;28;20274;-40
2022/12/14 03:25:42;;;;;;;;;;;-4.90;99.90;;;;;;5094622;28;19944;-40
2022/12/14 03:28:17;;;;;;;;;;;-4.90;99.90;;;;;;5094911;28;19978;-41
2022/12/14 03:30:43;;;;;;;;;;;-4.90;99.90;;;;;;5094877;28;20390;-40
2022/12/14 03:33:12;;;;;;;;;;;-4.90;99.90;;;;;;5093591;28;19919;-41
2022/12/14 03:35:41;;;;;;;;;;;-4.90;99.90;;;;;;5094806;28;19915;-41
2022/12/14 03:38:14;;;;;;;;;;;-4.90;99.90;;;;;;5094792;28;20002;-42
2022/12/14 03:40:51;;;;;;;;;;;-4.90;99.90;;;;;;5094099;28;20264;-40
2022/12/14 03:43:30;;;;;;;;;;;-4.90;99.90;;;;;;5098491;28;19919;-42
2022/12/14 03:46:14;;;;;;;;;;;-5.00;99.90;;;;;;5094564;28;19908;-40
2022/12/14 03:48:44;;;;;;;;;;;-5.10;99.90;;;;;;5093815;28;20358;-40
2022/12/14 03:51:17;;;;;;;;;;;-5.10;99.90;;;;;;5094550;28;19908;-39
2022/12/14 03:53:50;;;;;;;;;;;-5.10;99.90;;;;;;5093678;28;19928;-42
2022/12/14 03:56:22;;;;;;;;;;;-5.20;99.90;;;;;;5094322;28;19908;-40
2022/12/14 03:58:53;;;;;;;;;;;-5.20;99.90;;;;;;5094259;28;19912;-42
2022/12/14 04:01:24;;;;;;;;;;;-5.10;99.90;;;;;;5093895;28;19955;-41
2022/12/14 04:03:56;;;;;;;;;;;-5.10;99.90;;;;;;5094129;28;20354;-40
2022/12/14 04:06:44;;;;;;;;;;;-5.10;99.90;;;;;;5094248;28;19934;-40
2022/12/14 04:09:16;;;;;;;;;;;-5.10;99.90;;;;;;5093009;28;19908;-41
2022/12/14 04:20:06;;;;;;;;;;;-5.20;99.90;;;;;;5114643;28;20274;-42
2022/12/14 04:22:36;;;;;;;;;;;-5.20;99.90;;;;;;5113379;28;19907;-41
2022/12/14 04:28:02;;;;;;;;;;;-5.20;99.90;;;;;;5112880;28;19958;-40
2022/12/14 04:30:30;;;;;;;;;;;-5.20;99.90;;;;;;5095924;28;19920;-41
2022/12/14 04:32:58;;;;;;;;;;;-5.20;99.90;;;;;;5093658;28;20377;-41
2022/12/14 04:35:29;;;;;;;;;;;-5.20;99.90;;;;;;5093644;28;19919;-41
2022/12/14 04:37:58;;;;;;;;;;;-5.20;99.90;;;;;;5092820;28;19908;-42
2022/12/14 04:40:30;;;;;;;;;;;-5.20;99.90;;;;;;5096775;28;20000;-40
2022/12/14 04:42:58;;;;;;;;;;;-5.20;99.90;;;;;;5111319;28;20316;-40
2022/12/14 04:45:26;;;;;;;;;;;-5.30;99.90;;;;;;5113853;28;19920;-41
2022/12/14 04:48:07;;;;;;;;;;;-5.30;99.90;;;;;;5113739;28;19907;-40
2022/12/14 04:50:36;;;;;;;;;;;-5.20;99.90;;;;;;5112926;28;19908;-40
2022/12/14 04:53:07;;;;;;;;;;;-5.30;99.90;;;;;;5113596;28;19997;-41
2022/12/14 04:55:42;;;;;;;;;;;-5.20;99.90;;;;;;5108611;28;19908;-40
2022/12/14 04:58:19;;;;;;;;;;;-5.20;99.90;;;;;;5092233;28;19908;-40
2022/12/14 05:01:03;;;;;;;;;;;-5.20;99.90;;;;;;5093329;28;20448;-41
2022/12/14 05:03:31;;;;;;;;;;;-5.20;99.90;;;;;;5093132;28;19908;-42
2022/12/14 05:06:00;;;;;;;;;;;-5.30;99.90;;;;;;5092037;28;19909;-40
2022/12/14 05:08:26;;;;;;;;;;;-5.30;99.90;;;;;;5092720;28;19908;-40
2022/12/14 05:11:07;;;;;;;;;;;-5.20;99.90;;;;;;5092676;28;20050;-42
2022/12/14 05:13:39;;;;;;;;;;;-5.30;99.90;;;;;;5092785;28;20396;-41
2022/12/14 05:16:06;;;;;;;;;;;-5.30;99.90;;;;;;5092945;28;20409;-40
2022/12/14 05:18:33;;;;;;;;;;;-5.30;99.90;;;;;;5091954;28;19908;-42
2022/12/14 05:20:58;;;;;;;;;;;-5.40;99.90;;;;;;5092456;28;20427;-40
2022/12/14 05:23:23;;;;;;;;;;;-5.30;99.90;;;;;;5100151;28;19919;-40
2022/12/14 05:25:49;;;;;;;;;;;-5.40;99.90;;;;;;5112616;28;20265;-40
2022/12/14 05:28:14;;;;;;;;;;;-5.40;99.90;;;;;;5094654;28;19908;-42
2022/12/14 05:30:40;;;;;;;;;;;-5.40;99.90;;;;;;5092891;28;19914;-41
2022/12/14 05:33:05;;;;;;;;;;;-5.40;99.90;;;;;;5091773;28;20434;-42
2022/12/14 05:35:31;;;;;;;;;;;-5.40;99.90;;;;;;5092759;28;19908;-42
2022/12/14 05:37:56;;;;;;;;;;;-5.40;99.90;;;;;;5092787;28;19919;-40
2022/12/14 05:40:22;;;;;;;;;;;-5.30;99.90;;;;;;5091850;28;19919;-41
2022/12/14 05:42:47;;;;;;;;;;;-5.30;99.90;;;;;;5107142;28;19908;-42
2022/12/14 05:45:13;;;;;;;;;;;-5.30;99.90;;;;;;5113012;28;20311;-41
2022/12/14 05:47:39;;;;;;;;;;;-5.30;99.90;;;;;;5112279;28;20323;-42
2022/12/14 05:50:05;;;;;;;;;;;-5.30;99.90;;;;;;5111111;28;19908;-40
2022/12/14 05:52:30;;;;;;;;;;;-5.30;99.90;;;;;;5092469;28;19923;-41
2022/12/14 05:54:56;;;;;;;;;;;-5.30;99.90;;;;;;5091736;28;20318;-40
2022/12/14 05:57:21;;;;;;;;;;;-5.30;99.90;;;;;;5092486;28;19918;-40
2022/12/14 05:59:47;;;;;;;;;;;-5.30;99.90;;;;;;5092488;28;19909;-41
2022/12/14 06:02:12;;;;;;;;;;;-5.40;99.90;;;;;;5091796;28;20282;-43
2022/12/14 06:04:38;;;;;;;;;;;-5.40;99.90;;;;;;5092560;28;19915;-40
2022/12/14 06:07:03;;;;;;;;;;;-5.40;99.90;;;;;;5092155;28;19916;-41
2022/12/14 06:09:29;;;;;;;;;;;-5.40;99.90;;;;;;5109369;28;19912;-40
2022/12/14 06:11:54;;;;;;;;;;;-5.40;99.90;;;;;;5111807;28;19918;-41
2022/12/14 06:14:20;;;;;;;;;;;-5.30;99.90;;;;;;5112089;28;19916;-42
2022/12/14 06:16:46;;;;;;;;;;;-5.40;99.90;;;;;;5112754;28;19969;-41
2022/12/14 06:19:12;;;;;;;;;;;-5.40;99.90;;;;;;5112545;28;19907;-42
2022/12/14 06:21:39;;;;;;;;;;;-5.40;99.90;;;;;;5111484;28;19908;-41
2022/12/14 06:24:05;;;;;;;;;;;-5.40;99.90;;;;;;5112575;28;19923;-42
2022/12/14 06:26:32;;;;;;;;;;;-5.40;99.90;;;;;;5112518;28;19914;-42
2022/12/14 06:28:57;;;;;;;;;;;-5.50;99.90;;;;;;5111866;28;19912;-41
2022/12/14 06:31:27;;;;;;;;;;;-5.50;99.90;;;;;;5114787;28;19960;-40
2022/12/14 06:33:53;;;;;;;;;;;-5.50;99.90;;;;;;5116211;28;20378;-40
2022/12/14 06:36:22;;;;;;;;;;;-5.50;99.90;;;;;;5115554;28;19907;-42
2022/12/14 06:38:48;;;;;;;;;;;-5.40;99.90;;;;;;5116277;28;20028;-41
2022/12/14 06:41:13;;;;;;;;;;;-5.40;99.90;;;;;;5112121;28;19962;-41
2022/12/14 06:43:38;;;;;;;;;;;-5.40;99.90;;;;;;5101113;28;19912;-42
2022/12/14 06:46:11;;;;;;;;;;;-5.40;99.90;;;;;;5116169;28;20006;-41
2022/12/14 06:48:37;;;;;;;;;;;-5.40;99.90;;;;;;5116029;28;19908;-40
2022/12/14 06:51:03;;;;;;;;;;;-5.40;99.90;;;;;;5115255;28;19915;-41
2022/12/14 06:53:29;;;;;;;;;;;-5.50;99.90;;;;;;5116019;28;20389;-43
2022/12/14 06:56:08;;;;;;;;;;;-5.50;99.90;;;;;;5108481;28;19970;-41
2022/12/14 06:58:34;;;;;;;;;;;-5.40;99.90;;;;;;5094853;28;19912;-42
2022/12/14 07:01:00;;;;;;;;;;;-5.40;99.90;;;;;;5095469;28;19915;-42
2022/12/14 07:03:25;;;;;;;;;;;-5.40;99.90;;;;;;5094816;28;20293;-42
2022/12/14 07:05:54;;;;;;;;;;;-5.40;99.90;;;;;;5105223;28;20017;-42
2022/12/14 07:08:20;;;;;;;;;;;-5.40;99.90;;;;;;5134543;27;19908;-42
2022/12/14 07:10:45;;;;;;;;;;;-5.50;99.90;;;;;;5123737;27;19915;-41
2022/12/14 07:13:11;;;;;;;;;;;-5.50;99.90;;;;;;5097251;28;19924;-41
2022/12/14 07:15:36;;;;;;;;;;;-5.50;99.90;;;;;;5101290;28;19926;-43
2022/12/14 07:18:02;;;;;;;;;;;-5.50;99.90;;;;;;5108496;27;20374;-41
2022/12/14 07:20:27;;;;;;;;;;;-5.50;99.90;;;;;;5105984;28;19961;-42
2022/12/14 07:22:53;;;;;;;;;;;-5.60;99.90;;;;;;5106042;27;19981;-41
2022/12/14 07:25:18;;;;;;;;;;;-5.60;99.90;;;;;;5110069;28;19912;-41
2022/12/14 07:27:44;;;;;;;;;;;-5.60;99.90;;;;;;5115453;28;20319;-42
2022/12/14 07:30:10;;;;;;;;;;;-5.70;99.90;;;;;;5115377;28;19915;-41
2022/12/14 07:32:36;;;;;;;;;;;-5.70;99.90;;;;;;5114479;28;19912;-42
2022/12/14 07:35:01;;;;;;;;;;;-5.70;99.90;;;;;;5127413;27;20381;-42
2022/12/14 07:37:27;;;;;;;;;;;-5.70;99.90;;;;;;5135826;27;20293;-42
2022/12/14 07:39:52;;;;;;;;;;;-5.80;99.90;;;;;;5116586;27;19940;-41
2022/12/14 07:42:17;;;;;;;;;;;-5.80;99.90;;;;;;5093735;28;19912;-42
2022/12/14 07:44:43;;;;;;;;;;;-5.80;99.90;;;;;;5094308;28;19908;-42
2022/12/14 07:47:08;;;;;;;;;;;-5.80;99.90;;;;;;5109122;28;19961;-44
2022/12/14 07:49:34;;;;;;;;;;;-5.70;99.90;;;;;;5114721;28;19947;-46
2022/12/14 07:51:59;;;;;;;;;;;-5.70;99.90;;;;;;5113915;28;19907;-41
2022/12/14 07:54:25;;;;;;;;;;;-5.60;99.90;;;;;;5107652;28;20294;-42
2022/12/14 07:56:50;;;;;;;;;;;-5.60;99.90;;;;;;5101681;27;19912;-42
2022/12/14 07:59:16;;;;;;;;;;;-5.60;99.90;;;;;;5103521;28;19994;-41
2022/12/14 08:01:42;;;;;;;;;;;-5.70;99.90;;;;;;5118391;27;19912;-41
2022/12/14 08:04:12;;;;;;;;;;;-5.70;99.90;;;;;;5133045;27;19908;-44
2022/12/14 08:06:38;;;;;;;;;;;-5.70;99.90;;;;;;5103698;27;20278;-42
2022/12/14 08:09:04;;;;;;;;;;;-5.70;99.90;;;;;;5100432;28;19912;-42
2022/12/14 08:11:30;;;;;;;;;;;-5.60;99.90;;;;;;5100103;28;19998;-42
2022/12/14 08:13:56;;;;;;;;;;;-5.60;99.90;;;;;;5103578;28;20023;-42
2022/12/14 08:16:22;;;;;;;;;;;-5.60;99.90;;;;;;5129681;27;20013;-42
2022/12/14 08:18:48;;;;;;;;;;;-5.60;99.90;;;;;;5119056;27;20011;-41
2022/12/14 08:21:16;;;;;;;;;;;-5.50;99.90;;;;;;5101920;28;19931;-42
2022/12/14 08:23:41;;;;;;;;;;;-5.50;99.90;;;;;;5114243;28;19915;-43
2022/12/14 08:26:07;;;;;;;;;;;-5.40;99.90;;;;;;5098612;28;19912;-42
2022/12/14 08:28:34;;;;;;;;;;;-5.40;99.90;;;;;;5095578;28;19916;-41
2022/12/14 08:31:07;;;;;;;;;;;-5.40;99.90;;;;;;5106528;28;19956;-43
2022/12/14 08:33:33;;;;;;;;;;;-5.40;99.90;;;;;;5101358;28;20390;-39
2022/12/14 08:36:05;;;;;;;;;;;-5.30;99.90;;;;;;5091031;28;20278;-40
2022/12/14 08:38:30;;;;;;;;;;;-5.30;99.90;;;;;;5093837;28;19934;-43
2022/12/14 08:41:00;;;;;;;;;;;-5.30;99.90;;;;;;5093567;28;19916;-41
2022/12/14 08:43:25;;;;;;;;;;;-5.30;99.90;;;;;;5107374;28;19912;-42
2022/12/14 08:45:53;;;;;;;;;;;-5.20;99.90;;;;;;5113780;28;19931;-42
2022/12/14 08:48:18;;;;;;;;;;;-5.20;99.90;;;;;;5113832;28;19907;-42
2022/12/14 08:50:44;;;;;;;;;;;-5.20;99.90;;;;;;5113023;28;19918;-41
2022/12/14 08:53:09;;;;;;;;;;;-5.10;99.90;;;;;;5113445;28;20270;-44
2022/12/14 08:55:35;;;;;;;;;;;-5.10;99.90;;;;;;5105912;28;19912;-44
2022/12/14 08:58:01;;;;;;;;;;;-5.10;99.90;;;;;;5122856;27;19907;-41
2022/12/14 09:00:26;;;;;;;;;;;-5.00;99.90;;;;;;5132868;27;19915;-42
2022/12/14 09:02:53;;;;;;;;;;;-5.00;99.90;;;;;;5113599;28;19923;-41
2022/12/14 09:05:18;;;;;;;;;;;-4.90;99.90;;;;;;5112443;28;19907;-43
2022/12/14 09:07:44;;;;;;;;;;;-4.90;99.90;;;;;;5113034;28;20357;-44
2022/12/14 09:10:10;;;;;;;;;;;-4.80;99.90;;;;;;5112008;28;20480;-42
2022/12/14 09:12:36;;;;;;;;;;;-4.80;99.90;;;;;;5113598;27;20320;-40
2022/12/14 09:15:01;;;;;;;;;;;-4.70;99.90;;;;;;5107437;27;19912;-42
2022/12/14 09:17:27;;;;;;;;;;;-4.60;99.90;;;;;;5097532;28;19912;-41
2022/12/14 09:19:52;;;;;;;;;;;-4.50;99.90;;;;;;5102899;28;19908;-41
2022/12/14 09:22:18;;;;;;;;;;;-4.50;99.90;;;;;;5103816;28;19908;-43
2022/12/14 09:24:43;;;;;;;;;;;-4.40;99.90;;;;;;5093145;28;19958;-45
2022/12/14 09:27:09;;;;;;;;;;;-4.30;99.90;;;;;;5102375;28;19908;-41
2022/12/14 09:29:34;;;;;;;;;;;-4.20;99.90;;;;;;5093588;28;20005;-42
2022/12/14 09:32:00;;;;;;;;;;;-4.20;99.90;;;;;;5092921;28;20260;-42
2022/12/14 09:34:25;;;;;;;;;;;-4.20;99.90;;;;;;5092919;28;19921;-43
2022/12/14 09:36:51;;;;;;;;;;;-4.10;99.90;;;;;;5093361;28;19908;-41
2022/12/14 09:39:17;;;;;;;;;;;-4.00;99.90;;;;;;5092833;28;19908;-44
2022/12/14 09:42:00;;;;;;;;;;;-3.90;99.90;;;;;;5095765;28;20014;-41
2022/12/14 09:44:25;;;;;;;;;;;-3.80;99.90;;;;;;5083164;28;20314;-42
2022/12/14 09:46:54;;;;;;;;;;;-3.80;99.90;;;;;;5113209;28;19917;-41
2022/12/14 09:49:39;;;;;;;;;;;-3.70;99.90;;;;;;5116661;28;19912;-41
2022/12/14 09:52:05;;;;;;;;;;;-3.70;99.90;;;;;;5134149;28;19912;-43
2022/12/14 09:54:34;;;;;;;;;;;-3.60;99.90;;;;;;5133548;28;20512;-42
2022/12/14 09:57:11;;;;;;;;;;;-3.50;99.90;;;;;;5134064;28;19959;-41
2022/12/14 09:59:37;;;;;;;;;;;-3.50;99.90;;;;;;5133762;28;19907;-42
2022/12/14 10:02:23;;;;;;;;;;;-3.40;99.90;;;;;;5134184;28;19968;-41
2022/12/14 10:05:04;;;;;;;;;;;-3.30;99.90;;;;;;5133902;27;19907;-42
2022/12/14 10:07:35;;;;;;;;;;;-3.20;99.90;;;;;;5137847;27;20370;-43
2022/12/14 10:10:12;;;;;;;;;;;-3.20;99.90;;;;;;5138163;27;19907;-41
2022/12/14 10:12:50;;;;;;;;;;;-3.10;99.90;;;;;;5113529;27;20397;-42
2022/12/14 10:15:25;;;;;;;;;;;-3.00;99.90;;;;;;5106092;28;19912;-44
2022/12/14 10:18:00;;;;;;;;;;;-3.00;99.90;;;;;;5097128;28;20286;-41
2022/12/14 10:20:25;;;;;;;;;;;-2.90;99.90;;;;;;5096509;28;19908;-43
2022/12/14 10:22:51;;;;;;;;;;;-2.70;99.90;;;;;;5096993;28;19915;-42
2022/12/14 10:25:31;;;;;;;;;;;-2.70;99.90;;;;;;5096857;28;19908;-42
2022/12/14 10:27:56;;;;;;;;;;;-2.60;99.90;;;;;;5104693;28;19912;-42
2022/12/14 10:30:22;;;;;;;;;;;-2.50;99.90;;;;;;5099064;28;19912;-41
2022/12/14 10:32:53;;;;;;;;;;;-2.40;99.90;;;;;;5096854;28;20402;-42
2022/12/14 10:35:27;;;;;;;;;;;-2.30;99.90;;;;;;5096052;28;20326;-42
2022/12/14 10:38:15;;;;;;;;;;;-2.20;99.90;;;;;;5096778;28;19915;-42
2022/12/14 10:40:47;;;;;;;;;;;-2.10;99.90;;;;;;5100069;28;19943;-40
2022/12/14 10:43:12;;;;;;;;;;;-2.00;99.90;;;;;;5101248;27;19912;-42
2022/12/14 10:45:40;;;;;;;;;;;-2.00;99.90;;;;;;5099068;28;19912;-42
2022/12/14 10:48:11;;;;;;;;;;;-1.90;99.90;;;;;;5102484;28;19916;-42
2022/12/14 10:51:03;;;;;;;;;;;-1.80;99.90;;;;;;5107512;27;19912;-41
2022/12/14 10:53:43;;;;;;;;;;;-1.70;99.90;;;;;;5106448;28;20015;-42
2022/12/14 10:56:15;;;;;;;;;;;-1.60;99.90;;;;;;5107959;28;19958;-45
2022/12/14 10:58:40;;;;;;;;;;;-1.60;99.90;;;;;;5104629;28;20393;-42
2022/12/14 11:01:10;;;;;;;;;;;-1.50;99.90;;;;;;5096290;28;19912;-42
2022/12/14 11:03:36;;;;;;;;;;;-1.40;99.90;;;;;;5105857;28;20011;-43
2022/12/14 11:06:06;;;;;;;;;;;-1.30;99.90;;;;;;5109662;28;20336;-42
2022/12/14 11:08:45;;;;;;;;;;;-1.20;99.90;;;;;;5112281;28;20420;-41
2022/12/14 11:11:15;;;;;;;;;;;-1.20;99.90;;;;;;5115864;28;19912;-43
2022/12/14 11:13:47;;;;;;;;;;;-1.10;99.90;;;;;;5101114;28;19928;-42
2022/12/14 11:16:24;;;;;;;;;;;-1.00;99.90;;;;;;5089786;28;19916;-42
2022/12/14 11:18:57;;;;;;;;;;;-1.00;99.90;;;;;;5089290;28;19966;-40
2022/12/14 11:21:27;;;;;;;;;;;-0.90;99.90;;;;;;5093286;28;20423;-42
2022/12/14 11:23:53;;;;;;;;;;;-0.90;99.90;;;;;;5094818;28;20367;-42
2022/12/14 11:26:24;;;;;;;;;;;-0.80;99.90;;;;;;5095736;28;19915;-42
2022/12/14 11:28:54;;;;;;;;;;;-0.80;99.90;;;;;;5095103;28;20290;-41
2022/12/14 11:31:22;;;;;;;;;;;-0.80;99.90;;;;;;5095289;28;19962;-43
2022/12/14 11:33:49;;;;;;;;;;;-0.70;99.90;;;;;;5087793;28;19921;-41
2022/12/14 11:36:34;;;;;;;;;;;-0.70;99.90;;;;;;5075240;28;19912;-42
2022/12/14 11:39:00;;;;;;;;;;;-0.60;99.90;;;;;;5074789;28;20311;-42
2022/12/14 11:41:35;;;;;;;;;;;-0.50;99.90;;;;;;5075009;28;20361;-41
2022/12/14 11:44:02;;;;;;;;;;;-0.40;99.90;;;;;;5074492;28;19932;-41
2022/12/14 11:46:39;;;;;;;;;;;-0.30;99.90;;;;;;5075637;28;19913;-43
2022/12/14 11:49:17;;;;;;;;;;;-0.30;99.90;;;;;;5075498;28;19924;-42
2022/12/14 11:51:54;;;;;;;;;;;-0.30;99.90;;;;;;5086079;28;19912;-43
2022/12/14 11:54:20;;;;;;;;;;;-0.30;99.90;;;;;;5095286;28;20322;-43
2022/12/14 11:56:48;;;;;;;;;;;-0.20;99.90;;;;;;5095267;28;19962;-40
2022/12/14 11:59:14;;;;;;;;;;;-0.10;99.90;;;;;;5094294;28;19909;-40
2022/12/14 12:01:41;;;;;;;;;;;0.00;99.90;;;;;;5095133;28;20003;-42
2022/12/14 12:04:10;;;;;;;;;;;0.10;99.90;;;;;;5084218;28;20390;-42
2022/12/14 12:06:36;;;;;;;;;;;0.20;99.90;;;;;;5074289;28;19908;-41
2022/12/14 12:09:10;;;;;;;;;;;0.20;99.90;;;;;;5074710;28;19909;-42
2022/12/14 12:11:35;;;;;;;;;;;0.30;99.90;;;;;;5075806;28;19916;-42
2022/12/14 12:14:19;;;;;;;;;;;0.30;99.90;;;;;;5093572;28;20014;-41
2022/12/14 12:16:45;;;;;;;;;;;0.40;99.90;;;;;;5095063;28;19912;-41
2022/12/14 12:19:17;;;;;;;;;;;0.40;99.90;;;;;;5094585;28;19908;-45
2022/12/14 12:21:43;;;;;;;;;;;0.50;99.90;;;;;;5094334;28;20039;-43
2022/12/14 12:24:09;;;;;;;;;;;0.50;99.90;;;;;;5094643;28;19915;-41
2022/12/14 12:26:37;;;;;;;;;;;0.50;99.90;;;;;;5094682;28;19916;-44
2022/12/14 12:29:09;;;;;;;;;;;0.60;99.90;;;;;;5093529;28;19995;-43
2022/12/14 12:31:39;;;;;;;;;;;0.70;99.90;;;;;;5094671;28;19912;-42
2022/12/14 12:34:11;;;;;;;;;;;0.70;99.90;;;;;;5102739;28;19959;-41
2022/12/14 12:36:37;;;;;;;;;;;0.80;99.90;;;;;;5114924;28;19914;-42
2022/12/14 12:39:05;;;;;;;;;;;0.80;99.90;;;;;;5114813;28;19998;-43
2022/12/14 12:41:32;;;;;;;;;;;0.90;99.90;;;;;;5114356;28;19908;-41
2022/12/14 12:44:10;;;;;;;;;;;0.90;99.90;;;;;;5114652;28;19994;-43
2022/12/14 12:46:44;;;;;;;;;;;0.90;99.90;;;;;;5114695;28;19953;-42
2022/12/14 12:49:11;;;;;;;;;;;1.00;99.90;;;;;;5113967;28;20289;-41
2022/12/14 12:51:48;;;;;;;;;;;1.10;99.90;;;;;;5114499;28;19925;-41
2022/12/14 12:54:17;;;;;;;;;;;1.10;99.90;;;;;;5114314;28;19959;-42
2022/12/14 12:56:46;;;;;;;;;;;1.20;99.90;;;;;;5114021;28;19951;-42
2022/12/14 12:59:17;;;;;;;;;;;1.20;99.90;;;;;;5114182;28;19907;-42
2022/12/14 13:01:45;;;;;;;;;;;1.20;99.90;;;;;;5114389;28;19947;-41
2022/12/14 13:04:14;;;;;;;;;;;1.20;99.90;;;;;;5111609;28;20278;-42
2022/12/14 13:06:43;;;;;;;;;;;1.20;99.90;;;;;;5114012;28;19912;-40
2022/12/14 13:09:18;;;;;;;;;;;1.30;99.90;;;;;;5113806;28;19908;-43
2022/12/14 13:11:44;;;;;;;;;;;1.30;99.90;;;;;;5113599;28;19986;-42
2022/12/14 13:14:15;;;;;;;;;;;1.40;99.90;;;;;;5093930;28;20315;-42
2022/12/14 13:16:41;;;;;;;;;;;1.40;99.90;;;;;;5093253;28;19908;-42
2022/12/14 13:19:10;;;;;;;;;;;1.40;99.90;;;;;;5093680;28;19915;-41
2022/12/14 13:21:41;;;;;;;;;;;1.50;99.90;;;;;;5093774;28;19926;-42
2022/12/14 13:24:13;;;;;;;;;;;1.50;99.90;;;;;;5081849;28;19920;-44
2022/12/14 13:26:39;;;;;;;;;;;1.50;99.90;;;;;;5073511;28;19909;-43
2022/12/14 13:29:08;;;;;;;;;;;1.50;99.90;;;;;;5073384;28;19920;-41
2022/12/14 13:31:34;;;;;;;;;;;1.60;99.90;;;;;;5072893;28;19909;-40
2022/12/14 13:34:06;;;;;;;;;;;1.70;99.90;;;;;;5073213;28;19923;-43
2022/12/14 13:36:56;;;;;;;;;;;1.90;99.90;;;;;;5073414;28;19961;-42
2022/12/14 13:39:29;;;;;;;;;;;2.20;99.90;;;;;;5072626;28;19916;-41
2022/12/14 13:42:01;;;;;;;;;;;2.60;99.90;;;;;;5072669;28;19912;-41
2022/12/14 13:44:36;;;;;;;;;;;2.90;99.90;;;;;;5072855;28;19912;-40
2022/12/14 13:47:04;;;;;;;;;;;3.10;99.90;;;;;;5073236;28;19984;-41
2022/12/14 13:49:30;;;;;;;;;;;3.30;99.90;;;;;;5073329;28;19909;-42
2022/12/14 13:51:56;;;;;;;;;;;3.30;99.90;;;;;;5072558;28;20294;-41
2022/12/14 13:54:29;;;;;;;;;;;3.30;99.90;;;;;;5085696;28;20054;-41
2022/12/14 13:57:22;;;;;;;;;;;3.30;99.90;;;;;;5093432;28;19915;-41
2022/12/14 13:59:48;;;;;;;;;;;3.40;99.90;;;;;;5089276;28;19908;-41
2022/12/14 14:02:26;;;;;;;;;;;3.50;99.90;;;;;;5093149;28;19915;-42
2022/12/14 14:05:11;;;;;;;;;;;3.80;99.90;;;;;;5093317;28;20347;-41
2022/12/14 14:07:48;;;;;;;;;;;4.10;99.90;;;;;;5092648;28;19908;-42
2022/12/14 14:10:36;;;;;;;;;;;4.30;99.90;;;;;;5093140;28;19916;-40
2022/12/14 14:13:21;;;;;;;;;;;4.40;99.90;;;;;;5099821;28;19921;-42
2022/12/14 14:15:54;;;;;;;;;;;4.50;99.90;;;;;;5093385;28;19949;-43
2022/12/14 14:18:22;;;;;;;;;;;4.60;99.90;;;;;;5093206;28;19954;-42
2022/12/14 14:20:52;;;;;;;;;;;4.60;99.90;;;;;;5092693;28;19908;-43
2022/12/14 14:23:20;;;;;;;;;;;4.50;99.90;;;;;;5092992;28;19915;-42
2022/12/14 14:26:08;;;;;;;;;;;4.30;99.90;;;;;;5093067;28;19935;-42
2022/12/14 14:28:34;;;;;;;;;;;4.00;99.90;;;;;;5091951;28;19908;-41
2022/12/14 14:31:00;;;;;;;;;;;3.50;99.90;;;;;;5093068;28;20254;-42
2022/12/14 14:33:28;;;;;;;;;;;3.00;99.90;;;;;;5093039;28;19926;-43
2022/12/14 14:36:06;;;;;;;;;;;2.60;99.90;;;;;;5092347;28;19913;-41
2022/12/14 14:38:32;;;;;;;;;;;2.30;99.90;;;;;;5092928;28;20254;-44
2022/12/14 14:41:00;;;;;;;;;;;1.90;99.90;;;;;;5092393;28;19978;-40